sensor_id;sensor_type;location;lat;lon;timestamp;P1;durP1;ratioP1;P2;durP2;ratioP2
79128;SDS011;68529;43.286;23.360;2023-04-15T00:02:17;8.90;;;6.03;;
79128;SDS011;68529;43.286;23.360;2023-04-15T00:04:46;9.43;;;6.20;;
79128;SDS011;68529;43.286;23.360;2023-04-15T00:07:12;8.93;;;6.47;;
79128;SDS011;68529;43.286;23.360;2023-04-15T00:09:39;8.17;;;5.93;;
79128;SDS011;68529;43.286;23.360;2023-04-15T00:12:08;7.43;;;5.50;;
79128;SDS011;68529;43.286;23.360;2023-04-15T00:14:35;7.43;;;5.60;;
79128;SDS011;68529;43.286;23.360;2023-04-15T00:17:01;9.60;;;5.50;;
79128;SDS011;68529;43.286;23.360;2023-04-15T00:19:27;8.43;;;5.10;;
79128;SDS011;68529;43.286;23.360;2023-04-15T00:21:53;5.53;;;4.73;;
79128;SDS011;68529;43.286;23.360;2023-04-15T00:24:19;6.67;;;4.97;;
79128;SDS011;68529;43.286;23.360;2023-04-15T00:26:44;5.97;;;4.77;;
79128;SDS011;68529;43.286;23.360;2023-04-15T00:29:09;8.10;;;4.87;;
79128;SDS011;68529;43.286;23.360;2023-04-15T00:31:35;9.20;;;4.93;;
79128;SDS011;68529;43.286;23.360;2023-04-15T00:34:00;7.90;;;5.37;;
79128;SDS011;68529;43.286;23.360;2023-04-15T00:36:26;8.37;;;5.17;;
79128;SDS011;68529;43.286;23.360;2023-04-15T00:38:51;6.13;;;4.43;;
79128;SDS011;68529;43.286;23.360;2023-04-15T00:41:17;6.30;;;4.60;;
79128;SDS011;68529;43.286;23.360;2023-04-15T00:43:43;6.50;;;4.40;;
79128;SDS011;68529;43.286;23.360;2023-04-15T00:46:09;5.60;;;3.90;;
79128;SDS011;68529;43.286;23.360;2023-04-15T00:48:38;8.37;;;4.60;;
79128;SDS011;68529;43.286;23.360;2023-04-15T00:51:04;7.53;;;5.10;;
79128;SDS011;68529;43.286;23.360;2023-04-15T00:53:31;8.70;;;4.43;;
79128;SDS011;68529;43.286;23.360;2023-04-15T00:55:56;5.77;;;4.20;;
79128;SDS011;68529;43.286;23.360;2023-04-15T00:58:22;6.43;;;3.70;;
79128;SDS011;68529;43.286;23.360;2023-04-15T01:00:47;5.17;;;3.40;;
79128;SDS011;68529;43.286;23.360;2023-04-15T01:03:13;8.00;;;3.77;;
79128;SDS011;68529;43.286;23.360;2023-04-15T01:05:39;6.30;;;3.67;;
79128;SDS011;68529;43.286;23.360;2023-04-15T01:08:05;4.53;;;3.40;;
79128;SDS011;68529;43.286;23.360;2023-04-15T01:10:31;4.70;;;3.30;;
79128;SDS011;68529;43.286;23.360;2023-04-15T01:12:57;5.47;;;2.90;;
79128;SDS011;68529;43.286;23.360;2023-04-15T01:15:22;3.70;;;2.60;;
79128;SDS011;68529;43.286;23.360;2023-04-15T01:17:48;4.27;;;3.27;;
79128;SDS011;68529;43.286;23.360;2023-04-15T01:20:14;10.47;;;4.17;;
79128;SDS011;68529;43.286;23.360;2023-04-15T01:22:40;4.80;;;3.40;;
79128;SDS011;68529;43.286;23.360;2023-04-15T01:25:09;4.43;;;3.00;;
79128;SDS011;68529;43.286;23.360;2023-04-15T01:27:39;4.67;;;3.03;;
79128;SDS011;68529;43.286;23.360;2023-04-15T01:30:06;5.27;;;2.80;;
79128;SDS011;68529;43.286;23.360;2023-04-15T01:32:33;3.63;;;3.27;;
79128;SDS011;68529;43.286;23.360;2023-04-15T01:34:58;3.03;;;2.60;;
79128;SDS011;68529;43.286;23.360;2023-04-15T01:37:24;5.40;;;3.13;;
79128;SDS011;68529;43.286;23.360;2023-04-15T01:39:50;6.73;;;3.87;;
79128;SDS011;68529;43.286;23.360;2023-04-15T01:42:15;6.93;;;3.70;;
79128;SDS011;68529;43.286;23.360;2023-04-15T01:44:41;3.27;;;2.77;;
79128;SDS011;68529;43.286;23.360;2023-04-15T01:47:06;5.97;;;2.50;;
79128;SDS011;68529;43.286;23.360;2023-04-15T01:49:32;2.73;;;2.10;;
79128;SDS011;68529;43.286;23.360;2023-04-15T01:51:58;3.10;;;2.33;;
79128;SDS011;68529;43.286;23.360;2023-04-15T01:54:23;4.93;;;2.50;;
79128;SDS011;68529;43.286;23.360;2023-04-15T01:56:49;5.33;;;2.90;;
79128;SDS011;68529;43.286;23.360;2023-04-15T01:59:14;5.27;;;2.37;;
79128;SDS011;68529;43.286;23.360;2023-04-15T02:01:40;2.33;;;2.10;;
79128;SDS011;68529;43.286;23.360;2023-04-15T02:04:06;3.27;;;2.53;;
79128;SDS011;68529;43.286;23.360;2023-04-15T02:06:32;3.37;;;2.40;;
79128;SDS011;68529;43.286;23.360;2023-04-15T02:08:57;2.53;;;1.43;;
79128;SDS011;68529;43.286;23.360;2023-04-15T02:11:23;2.43;;;1.37;;
79128;SDS011;68529;43.286;23.360;2023-04-15T02:13:48;3.10;;;1.70;;
79128;SDS011;68529;43.286;23.360;2023-04-15T02:16:15;4.20;;;1.80;;
79128;SDS011;68529;43.286;23.360;2023-04-15T02:18:45;2.73;;;1.83;;
79128;SDS011;68529;43.286;23.360;2023-04-15T02:21:11;3.10;;;2.20;;
79128;SDS011;68529;43.286;23.360;2023-04-15T02:23:37;3.33;;;1.90;;
79128;SDS011;68529;43.286;23.360;2023-04-15T02:26:02;2.73;;;2.23;;
79128;SDS011;68529;43.286;23.360;2023-04-15T02:28:28;3.10;;;2.07;;
79128;SDS011;68529;43.286;23.360;2023-04-15T02:30:53;4.10;;;3.13;;
79128;SDS011;68529;43.286;23.360;2023-04-15T02:33:21;6.00;;;3.07;;
79128;SDS011;68529;43.286;23.360;2023-04-15T02:35:47;4.20;;;2.90;;
79128;SDS011;68529;43.286;23.360;2023-04-15T02:38:12;3.17;;;2.30;;
79128;SDS011;68529;43.286;23.360;2023-04-15T02:40:40;4.03;;;2.87;;
79128;SDS011;68529;43.286;23.360;2023-04-15T02:43:06;3.77;;;2.53;;
79128;SDS011;68529;43.286;23.360;2023-04-15T02:45:32;3.70;;;2.77;;
79128;SDS011;68529;43.286;23.360;2023-04-15T02:47:57;4.23;;;2.40;;
79128;SDS011;68529;43.286;23.360;2023-04-15T02:50:22;3.77;;;2.07;;
79128;SDS011;68529;43.286;23.360;2023-04-15T02:52:49;3.83;;;2.23;;
79128;SDS011;68529;43.286;23.360;2023-04-15T02:55:16;2.90;;;1.60;;
79128;SDS011;68529;43.286;23.360;2023-04-15T02:57:42;2.87;;;1.87;;
79128;SDS011;68529;43.286;23.360;2023-04-15T03:00:08;23.27;;;3.10;;
79128;SDS011;68529;43.286;23.360;2023-04-15T03:02:36;5.40;;;1.70;;
79128;SDS011;68529;43.286;23.360;2023-04-15T03:05:03;3.40;;;1.40;;
79128;SDS011;68529;43.286;23.360;2023-04-15T03:07:30;1.63;;;1.53;;
79128;SDS011;68529;43.286;23.360;2023-04-15T03:09:55;3.30;;;1.50;;
79128;SDS011;68529;43.286;23.360;2023-04-15T03:12:21;3.93;;;2.67;;
79128;SDS011;68529;43.286;23.360;2023-04-15T03:14:46;4.70;;;2.67;;
79128;SDS011;68529;43.286;23.360;2023-04-15T03:17:12;3.27;;;2.83;;
79128;SDS011;68529;43.286;23.360;2023-04-15T03:19:37;5.27;;;3.80;;
79128;SDS011;68529;43.286;23.360;2023-04-15T03:22:03;4.73;;;3.67;;
79128;SDS011;68529;43.286;23.360;2023-04-15T03:24:28;5.63;;;4.27;;
79128;SDS011;68529;43.286;23.360;2023-04-15T03:26:54;9.70;;;7.63;;
79128;SDS011;68529;43.286;23.360;2023-04-15T03:29:21;4.20;;;3.63;;
79128;SDS011;68529;43.286;23.360;2023-04-15T03:31:47;4.43;;;3.90;;
79128;SDS011;68529;43.286;23.360;2023-04-15T03:34:12;4.10;;;3.37;;
79128;SDS011;68529;43.286;23.360;2023-04-15T03:36:38;4.97;;;3.97;;
79128;SDS011;68529;43.286;23.360;2023-04-15T03:39:03;5.30;;;3.30;;
79128;SDS011;68529;43.286;23.360;2023-04-15T03:41:29;5.43;;;3.37;;
79128;SDS011;68529;43.286;23.360;2023-04-15T03:43:55;10.30;;;6.23;;
79128;SDS011;68529;43.286;23.360;2023-04-15T03:46:21;5.67;;;3.47;;
79128;SDS011;68529;43.286;23.360;2023-04-15T03:48:46;3.23;;;2.70;;
79128;SDS011;68529;43.286;23.360;2023-04-15T03:51:12;3.10;;;2.17;;
79128;SDS011;68529;43.286;23.360;2023-04-15T03:53:37;3.70;;;2.13;;
79128;SDS011;68529;43.286;23.360;2023-04-15T03:56:03;3.87;;;1.80;;
79128;SDS011;68529;43.286;23.360;2023-04-15T03:58:28;2.30;;;2.00;;
79128;SDS011;68529;43.286;23.360;2023-04-15T04:00:53;2.63;;;2.20;;
79128;SDS011;68529;43.286;23.360;2023-04-15T04:03:19;2.53;;;2.30;;
79128;SDS011;68529;43.286;23.360;2023-04-15T04:05:45;3.57;;;2.50;;
79128;SDS011;68529;43.286;23.360;2023-04-15T04:08:10;4.43;;;2.07;;
79128;SDS011;68529;43.286;23.360;2023-04-15T04:10:38;2.17;;;1.80;;
79128;SDS011;68529;43.286;23.360;2023-04-15T04:13:03;2.97;;;2.07;;
79128;SDS011;68529;43.286;23.360;2023-04-15T04:15:29;2.53;;;1.93;;
79128;SDS011;68529;43.286;23.360;2023-04-15T04:17:55;3.97;;;2.77;;
79128;SDS011;68529;43.286;23.360;2023-04-15T04:20:20;3.97;;;2.70;;
79128;SDS011;68529;43.286;23.360;2023-04-15T04:22:46;3.80;;;2.93;;
79128;SDS011;68529;43.286;23.360;2023-04-15T04:25:11;3.83;;;2.93;;
79128;SDS011;68529;43.286;23.360;2023-04-15T04:27:37;3.37;;;2.57;;
79128;SDS011;68529;43.286;23.360;2023-04-15T04:30:03;3.33;;;2.90;;
79128;SDS011;68529;43.286;23.360;2023-04-15T04:32:29;4.47;;;2.77;;
79128;SDS011;68529;43.286;23.360;2023-04-15T04:34:54;4.30;;;2.67;;
79128;SDS011;68529;43.286;23.360;2023-04-15T04:37:20;8.03;;;3.27;;
79128;SDS011;68529;43.286;23.360;2023-04-15T04:39:47;5.03;;;3.37;;
79128;SDS011;68529;43.286;23.360;2023-04-15T04:42:12;4.60;;;3.00;;
79128;SDS011;68529;43.286;23.360;2023-04-15T04:44:38;5.70;;;4.23;;
79128;SDS011;68529;43.286;23.360;2023-04-15T04:47:03;6.77;;;5.37;;
79128;SDS011;68529;43.286;23.360;2023-04-15T04:49:29;7.67;;;5.07;;
79128;SDS011;68529;43.286;23.360;2023-04-15T04:51:54;6.90;;;4.53;;
79128;SDS011;68529;43.286;23.360;2023-04-15T04:54:20;16.90;;;11.87;;
79128;SDS011;68529;43.286;23.360;2023-04-15T04:56:46;8.67;;;7.17;;
79128;SDS011;68529;43.286;23.360;2023-04-15T04:59:11;6.93;;;4.13;;
79128;SDS011;68529;43.286;23.360;2023-04-15T05:01:37;11.73;;;3.40;;
79128;SDS011;68529;43.286;23.360;2023-04-15T05:04:02;7.20;;;3.70;;
79128;SDS011;68529;43.286;23.360;2023-04-15T05:06:29;4.67;;;3.50;;
79128;SDS011;68529;43.286;23.360;2023-04-15T05:08:55;6.30;;;3.70;;
79128;SDS011;68529;43.286;23.360;2023-04-15T05:11:20;8.87;;;6.90;;
79128;SDS011;68529;43.286;23.360;2023-04-15T05:13:46;6.73;;;5.47;;
79128;SDS011;68529;43.286;23.360;2023-04-15T05:16:11;4.80;;;3.40;;
79128;SDS011;68529;43.286;23.360;2023-04-15T05:18:37;3.30;;;2.20;;
79128;SDS011;68529;43.286;23.360;2023-04-15T05:21:02;3.63;;;2.47;;
79128;SDS011;68529;43.286;23.360;2023-04-15T05:23:28;2.57;;;2.00;;
79128;SDS011;68529;43.286;23.360;2023-04-15T05:25:53;2.70;;;2.30;;
79128;SDS011;68529;43.286;23.360;2023-04-15T05:28:18;3.90;;;3.00;;
79128;SDS011;68529;43.286;23.360;2023-04-15T05:30:44;3.90;;;2.33;;
79128;SDS011;68529;43.286;23.360;2023-04-15T05:33:09;6.93;;;2.97;;
79128;SDS011;68529;43.286;23.360;2023-04-15T05:35:35;4.53;;;2.70;;
79128;SDS011;68529;43.286;23.360;2023-04-15T05:38:01;3.10;;;2.40;;
79128;SDS011;68529;43.286;23.360;2023-04-15T05:40:26;3.80;;;3.10;;
79128;SDS011;68529;43.286;23.360;2023-04-15T05:42:52;4.23;;;2.87;;
79128;SDS011;68529;43.286;23.360;2023-04-15T05:45:17;3.47;;;2.20;;
79128;SDS011;68529;43.286;23.360;2023-04-15T05:47:43;13.03;;;9.83;;
79128;SDS011;68529;43.286;23.360;2023-04-15T05:50:08;13.63;;;11.17;;
79128;SDS011;68529;43.286;23.360;2023-04-15T05:52:34;9.53;;;7.97;;
79128;SDS011;68529;43.286;23.360;2023-04-15T05:54:59;6.23;;;4.30;;
79128;SDS011;68529;43.286;23.360;2023-04-15T05:57:25;3.93;;;3.17;;
79128;SDS011;68529;43.286;23.360;2023-04-15T05:59:50;7.13;;;5.57;;
79128;SDS011;68529;43.286;23.360;2023-04-15T06:02:16;7.60;;;5.10;;
79128;SDS011;68529;43.286;23.360;2023-04-15T06:04:42;6.73;;;5.00;;
79128;SDS011;68529;43.286;23.360;2023-04-15T06:07:08;3.40;;;2.30;;
79128;SDS011;68529;43.286;23.360;2023-04-15T06:09:33;6.70;;;2.43;;
79128;SDS011;68529;43.286;23.360;2023-04-15T06:11:58;10.13;;;6.10;;
79128;SDS011;68529;43.286;23.360;2023-04-15T06:14:25;8.53;;;4.17;;
79128;SDS011;68529;43.286;23.360;2023-04-15T06:16:51;4.03;;;3.00;;
79128;SDS011;68529;43.286;23.360;2023-04-15T06:19:16;6.70;;;4.63;;
79128;SDS011;68529;43.286;23.360;2023-04-15T06:21:42;10.80;;;5.70;;
79128;SDS011;68529;43.286;23.360;2023-04-15T06:24:08;4.33;;;3.00;;
79128;SDS011;68529;43.286;23.360;2023-04-15T06:26:33;2.60;;;2.40;;
79128;SDS011;68529;43.286;23.360;2023-04-15T06:28:59;14.90;;;3.63;;
79128;SDS011;68529;43.286;23.360;2023-04-15T06:31:24;9.60;;;3.47;;
79128;SDS011;68529;43.286;23.360;2023-04-15T06:33:50;9.47;;;3.50;;
79128;SDS011;68529;43.286;23.360;2023-04-15T06:36:16;5.40;;;2.70;;
79128;SDS011;68529;43.286;23.360;2023-04-15T06:38:41;4.30;;;3.90;;
79128;SDS011;68529;43.286;23.360;2023-04-15T06:41:07;4.83;;;2.90;;
79128;SDS011;68529;43.286;23.360;2023-04-15T06:43:32;5.23;;;2.70;;
79128;SDS011;68529;43.286;23.360;2023-04-15T06:45:58;4.77;;;3.03;;
79128;SDS011;68529;43.286;23.360;2023-04-15T06:48:23;8.80;;;2.87;;
79128;SDS011;68529;43.286;23.360;2023-04-15T06:50:49;6.10;;;2.47;;
79128;SDS011;68529;43.286;23.360;2023-04-15T06:53:14;2.90;;;2.20;;
79128;SDS011;68529;43.286;23.360;2023-04-15T06:55:40;4.30;;;2.67;;
79128;SDS011;68529;43.286;23.360;2023-04-15T06:58:06;13.90;;;4.67;;
79128;SDS011;68529;43.286;23.360;2023-04-15T07:00:32;5.53;;;2.80;;
79128;SDS011;68529;43.286;23.360;2023-04-15T07:03:03;3.73;;;2.60;;
79128;SDS011;68529;43.286;23.360;2023-04-15T07:05:29;3.53;;;3.13;;
79128;SDS011;68529;43.286;23.360;2023-04-15T07:07:55;16.60;;;5.10;;
79128;SDS011;68529;43.286;23.360;2023-04-15T07:10:21;13.77;;;6.97;;
79128;SDS011;68529;43.286;23.360;2023-04-15T07:12:47;8.57;;;4.93;;
79128;SDS011;68529;43.286;23.360;2023-04-15T07:15:12;2.60;;;1.20;;
79128;SDS011;68529;43.286;23.360;2023-04-15T07:17:39;2.13;;;1.67;;
79128;SDS011;68529;43.286;23.360;2023-04-15T07:20:06;2.27;;;1.30;;
79128;SDS011;68529;43.286;23.360;2023-04-15T07:22:31;3.70;;;1.93;;
79128;SDS011;68529;43.286;23.360;2023-04-15T07:24:57;3.57;;;1.70;;
79128;SDS011;68529;43.286;23.360;2023-04-15T07:27:23;2.67;;;1.00;;
79128;SDS011;68529;43.286;23.360;2023-04-15T07:29:48;3.27;;;1.13;;
79128;SDS011;68529;43.286;23.360;2023-04-15T07:32:16;10.80;;;2.13;;
79128;SDS011;68529;43.286;23.360;2023-04-15T07:34:41;3.70;;;1.27;;
79128;SDS011;68529;43.286;23.360;2023-04-15T07:37:07;31.25;;;3.40;;
79128;SDS011;68529;43.286;23.360;2023-04-15T07:39:32;2.75;;;0.90;;
79128;SDS011;68529;43.286;23.360;2023-04-15T07:41:58;5.43;;;1.70;;
79128;SDS011;68529;43.286;23.360;2023-04-15T07:44:23;3.35;;;1.38;;
79128;SDS011;68529;43.286;23.360;2023-04-15T07:46:50;1.83;;;1.02;;
79128;SDS011;68529;43.286;23.360;2023-04-15T07:49:16;2.30;;;1.02;;
79128;SDS011;68529;43.286;23.360;2023-04-15T07:51:43;3.75;;;2.75;;
79128;SDS011;68529;43.286;23.360;2023-04-15T07:54:09;2.55;;;1.20;;
79128;SDS011;68529;43.286;23.360;2023-04-15T07:56:34;5.07;;;4.22;;
79128;SDS011;68529;43.286;23.360;2023-04-15T07:58:59;5.93;;;2.63;;
79128;SDS011;68529;43.286;23.360;2023-04-15T08:01:26;3.30;;;1.73;;
79128;SDS011;68529;43.286;23.360;2023-04-15T08:03:51;15.65;;;3.38;;
79128;SDS011;68529;43.286;23.360;2023-04-15T08:06:17;4.53;;;2.75;;
79128;SDS011;68529;43.286;23.360;2023-04-15T08:08:42;3.85;;;1.50;;
79128;SDS011;68529;43.286;23.360;2023-04-15T08:11:08;1.85;;;1.27;;
79128;SDS011;68529;43.286;23.360;2023-04-15T08:13:33;2.65;;;1.20;;
79128;SDS011;68529;43.286;23.360;2023-04-15T08:18:45;2.92;;;0.77;;
79128;SDS011;68529;43.286;23.360;2023-04-15T08:21:14;4.10;;;1.60;;
79128;SDS011;68529;43.286;23.360;2023-04-15T08:23:40;1.52;;;0.90;;
79128;SDS011;68529;43.286;23.360;2023-04-15T08:26:07;2.05;;;0.90;;
79128;SDS011;68529;43.286;23.360;2023-04-15T08:28:33;1.40;;;0.90;;
79128;SDS011;68529;43.286;23.360;2023-04-15T08:30:59;3.45;;;2.40;;
79128;SDS011;68529;43.286;23.360;2023-04-15T08:33:25;4.57;;;1.30;;
79128;SDS011;68529;43.286;23.360;2023-04-15T08:35:50;2.88;;;1.38;;
79128;SDS011;68529;43.286;23.360;2023-04-15T08:38:16;3.45;;;2.58;;
79128;SDS011;68529;43.286;23.360;2023-04-15T08:40:43;1.13;;;0.90;;
79128;SDS011;68529;43.286;23.360;2023-04-15T08:43:10;3.95;;;0.80;;
79128;SDS011;68529;43.286;23.360;2023-04-15T08:45:39;0.82;;;0.82;;
79128;SDS011;68529;43.286;23.360;2023-04-15T08:48:06;2.83;;;1.10;;
79128;SDS011;68529;43.286;23.360;2023-04-15T08:50:33;6.10;;;2.40;;
79128;SDS011;68529;43.286;23.360;2023-04-15T08:52:59;1.10;;;1.00;;
79128;SDS011;68529;43.286;23.360;2023-04-15T08:55:26;2.10;;;0.80;;
79128;SDS011;68529;43.286;23.360;2023-04-15T08:57:54;4.00;;;1.65;;
79128;SDS011;68529;43.286;23.360;2023-04-15T09:00:21;1.42;;;1.27;;
79128;SDS011;68529;43.286;23.360;2023-04-15T09:02:47;2.67;;;1.00;;
79128;SDS011;68529;43.286;23.360;2023-04-15T09:05:12;3.15;;;2.08;;
79128;SDS011;68529;43.286;23.360;2023-04-15T09:07:38;1.33;;;1.15;;
79128;SDS011;68529;43.286;23.360;2023-04-15T09:10:03;4.88;;;1.65;;
79128;SDS011;68529;43.286;23.360;2023-04-15T09:12:29;1.45;;;1.00;;
79128;SDS011;68529;43.286;23.360;2023-04-15T09:14:55;1.83;;;1.30;;
79128;SDS011;68529;43.286;23.360;2023-04-15T09:17:21;1.95;;;1.25;;
79128;SDS011;68529;43.286;23.360;2023-04-15T09:19:48;1.40;;;1.15;;
79128;SDS011;68529;43.286;23.360;2023-04-15T09:22:30;2.47;;;1.02;;
79128;SDS011;68529;43.286;23.360;2023-04-15T09:24:56;1.60;;;0.88;;
79128;SDS011;68529;43.286;23.360;2023-04-15T09:27:22;1.60;;;1.50;;
79128;SDS011;68529;43.286;23.360;2023-04-15T09:29:48;2.63;;;1.55;;
79128;SDS011;68529;43.286;23.360;2023-04-15T09:32:15;1.90;;;1.58;;
79128;SDS011;68529;43.286;23.360;2023-04-15T09:34:40;6.88;;;2.53;;
79128;SDS011;68529;43.286;23.360;2023-04-15T09:37:06;8.18;;;2.90;;
79128;SDS011;68529;43.286;23.360;2023-04-15T09:39:49;3.58;;;1.50;;
79128;SDS011;68529;43.286;23.360;2023-04-15T09:42:16;5.38;;;3.65;;
79128;SDS011;68529;43.286;23.360;2023-04-15T09:44:48;1.83;;;1.42;;
79128;SDS011;68529;43.286;23.360;2023-04-15T09:47:30;23.92;;;2.60;;
79128;SDS011;68529;43.286;23.360;2023-04-15T09:49:59;10.32;;;1.75;;
79128;SDS011;68529;43.286;23.360;2023-04-15T09:52:25;2.30;;;1.27;;
79128;SDS011;68529;43.286;23.360;2023-04-15T09:54:54;15.02;;;2.10;;
79128;SDS011;68529;43.286;23.360;2023-04-15T09:57:21;14.52;;;2.15;;
79128;SDS011;68529;43.286;23.360;2023-04-15T09:59:48;41.33;;;4.13;;
79128;SDS011;68529;43.286;23.360;2023-04-15T10:02:13;2.80;;;0.98;;
79128;SDS011;68529;43.286;23.360;2023-04-15T10:04:40;1.27;;;1.08;;
79128;SDS011;68529;43.286;23.360;2023-04-15T10:07:09;2.45;;;2.00;;
79128;SDS011;68529;43.286;23.360;2023-04-15T10:09:39;3.38;;;2.08;;
79128;SDS011;68529;43.286;23.360;2023-04-15T10:12:04;1.98;;;1.00;;
79128;SDS011;68529;43.286;23.360;2023-04-15T10:14:31;1.30;;;0.80;;
79128;SDS011;68529;43.286;23.360;2023-04-15T10:17:02;21.85;;;2.42;;
79128;SDS011;68529;43.286;23.360;2023-04-15T10:19:32;3.30;;;1.23;;
79128;SDS011;68529;43.286;23.360;2023-04-15T10:22:00;5.32;;;1.30;;
79128;SDS011;68529;43.286;23.360;2023-04-15T10:24:26;29.63;;;3.92;;
79128;SDS011;68529;43.286;23.360;2023-04-15T10:26:52;21.17;;;6.15;;
79128;SDS011;68529;43.286;23.360;2023-04-15T10:29:18;20.48;;;4.65;;
79128;SDS011;68529;43.286;23.360;2023-04-15T10:31:44;4.25;;;2.28;;
79128;SDS011;68529;43.286;23.360;2023-04-15T10:34:10;2.00;;;1.15;;
79128;SDS011;68529;43.286;23.360;2023-04-15T10:36:37;3.05;;;1.10;;
79128;SDS011;68529;43.286;23.360;2023-04-15T10:39:06;1.40;;;1.00;;
79128;SDS011;68529;43.286;23.360;2023-04-15T10:44:32;6.18;;;2.72;;
79128;SDS011;68529;43.286;23.360;2023-04-15T10:46:57;4.78;;;1.55;;
79128;SDS011;68529;43.286;23.360;2023-04-15T10:49:24;5.60;;;2.33;;
79128;SDS011;68529;43.286;23.360;2023-04-15T10:51:50;6.22;;;1.73;;
79128;SDS011;68529;43.286;23.360;2023-04-15T10:57:14;1.60;;;1.10;;
79128;SDS011;68529;43.286;23.360;2023-04-15T11:00:23;11.73;;;1.65;;
79128;SDS011;68529;43.286;23.360;2023-04-15T11:05:07;1.30;;;1.13;;
79128;SDS011;68529;43.286;23.360;2023-04-15T11:12:37;4.22;;;1.50;;
79128;SDS011;68529;43.286;23.360;2023-04-15T11:18:11;3.08;;;1.70;;
79128;SDS011;68529;43.286;23.360;2023-04-15T11:20:54;2.83;;;1.50;;
79128;SDS011;68529;43.286;23.360;2023-04-15T11:25:57;4.70;;;3.13;;
79128;SDS011;68529;43.286;23.360;2023-04-15T11:28:28;2.03;;;1.10;;
79128;SDS011;68529;43.286;23.360;2023-04-15T11:30:55;4.22;;;1.48;;
79128;SDS011;68529;43.286;23.360;2023-04-15T11:33:21;2.53;;;1.52;;
79128;SDS011;68529;43.286;23.360;2023-04-15T11:35:48;4.70;;;2.00;;
79128;SDS011;68529;43.286;23.360;2023-04-15T11:38:13;2.40;;;1.60;;
79128;SDS011;68529;43.286;23.360;2023-04-15T11:40:40;4.10;;;1.88;;
79128;SDS011;68529;43.286;23.360;2023-04-15T11:43:07;3.25;;;1.25;;
79128;SDS011;68529;43.286;23.360;2023-04-15T11:45:44;2.17;;;1.27;;
79128;SDS011;68529;43.286;23.360;2023-04-15T11:48:16;4.18;;;1.50;;
79128;SDS011;68529;43.286;23.360;2023-04-15T11:50:42;4.82;;;1.50;;
79128;SDS011;68529;43.286;23.360;2023-04-15T11:53:09;6.75;;;2.97;;
79128;SDS011;68529;43.286;23.360;2023-04-15T11:58:19;1.67;;;1.23;;
79128;SDS011;68529;43.286;23.360;2023-04-15T12:00:47;3.97;;;2.90;;
79128;SDS011;68529;43.286;23.360;2023-04-15T12:03:23;4.82;;;1.92;;
79128;SDS011;68529;43.286;23.360;2023-04-15T12:11:26;3.17;;;2.70;;
79128;SDS011;68529;43.286;23.360;2023-04-15T12:16:23;4.75;;;2.75;;
79128;SDS011;68529;43.286;23.360;2023-04-15T12:18:50;3.25;;;1.40;;
79128;SDS011;68529;43.286;23.360;2023-04-15T12:21:24;4.85;;;1.98;;
79128;SDS011;68529;43.286;23.360;2023-04-15T12:23:54;4.10;;;1.75;;
79128;SDS011;68529;43.286;23.360;2023-04-15T12:26:25;2.22;;;1.25;;
79128;SDS011;68529;43.286;23.360;2023-04-15T12:28:59;1.88;;;0.90;;
79128;SDS011;68529;43.286;23.360;2023-04-15T12:31:26;2.20;;;1.42;;
79128;SDS011;68529;43.286;23.360;2023-04-15T12:33:53;3.40;;;1.30;;
79128;SDS011;68529;43.286;23.360;2023-04-15T12:36:19;2.95;;;1.85;;
79128;SDS011;68529;43.286;23.360;2023-04-15T12:38:45;5.32;;;1.67;;
79128;SDS011;68529;43.286;23.360;2023-04-15T12:41:10;7.82;;;2.53;;
79128;SDS011;68529;43.286;23.360;2023-04-15T12:43:36;2.88;;;1.75;;
79128;SDS011;68529;43.286;23.360;2023-04-15T12:46:01;2.30;;;1.73;;
79128;SDS011;68529;43.286;23.360;2023-04-15T12:48:26;1.75;;;1.60;;
79128;SDS011;68529;43.286;23.360;2023-04-15T12:50:52;5.15;;;3.10;;
79128;SDS011;68529;43.286;23.360;2023-04-15T12:53:17;1.95;;;1.73;;
79128;SDS011;68529;43.286;23.360;2023-04-15T12:55:43;4.07;;;2.50;;
79128;SDS011;68529;43.286;23.360;2023-04-15T12:58:08;29.70;;;3.58;;
79128;SDS011;68529;43.286;23.360;2023-04-15T13:00:35;2.50;;;1.65;;
79128;SDS011;68529;43.286;23.360;2023-04-15T13:03:01;4.53;;;1.90;;
79128;SDS011;68529;43.286;23.360;2023-04-15T13:05:27;4.00;;;1.40;;
79128;SDS011;68529;43.286;23.360;2023-04-15T13:07:52;2.08;;;1.55;;
79128;SDS011;68529;43.286;23.360;2023-04-15T13:10:18;2.55;;;1.50;;
79128;SDS011;68529;43.286;23.360;2023-04-15T13:12:43;5.03;;;1.90;;
79128;SDS011;68529;43.286;23.360;2023-04-15T13:15:10;7.15;;;1.77;;
79128;SDS011;68529;43.286;23.360;2023-04-15T13:17:37;6.53;;;1.88;;
79128;SDS011;68529;43.286;23.360;2023-04-15T13:20:02;4.70;;;1.80;;
79128;SDS011;68529;43.286;23.360;2023-04-15T13:22:28;1.70;;;1.52;;
79128;SDS011;68529;43.286;23.360;2023-04-15T13:24:53;10.05;;;2.33;;
79128;SDS011;68529;43.286;23.360;2023-04-15T13:27:19;11.80;;;2.60;;
79128;SDS011;68529;43.286;23.360;2023-04-15T13:29:45;5.70;;;2.90;;
79128;SDS011;68529;43.286;23.360;2023-04-15T13:32:10;8.65;;;2.95;;
79128;SDS011;68529;43.286;23.360;2023-04-15T13:34:36;6.00;;;2.17;;
79128;SDS011;68529;43.286;23.360;2023-04-15T13:37:05;4.80;;;2.20;;
79128;SDS011;68529;43.286;23.360;2023-04-15T13:39:31;5.25;;;2.85;;
79128;SDS011;68529;43.286;23.360;2023-04-15T13:41:57;3.63;;;2.75;;
79128;SDS011;68529;43.286;23.360;2023-04-15T13:44:22;5.05;;;2.50;;
79128;SDS011;68529;43.286;23.360;2023-04-15T13:46:48;4.97;;;2.78;;
79128;SDS011;68529;43.286;23.360;2023-04-15T13:49:13;6.80;;;4.05;;
79128;SDS011;68529;43.286;23.360;2023-04-15T13:51:39;5.82;;;3.10;;
79128;SDS011;68529;43.286;23.360;2023-04-15T13:54:04;2.47;;;2.25;;
79128;SDS011;68529;43.286;23.360;2023-04-15T13:56:30;2.17;;;1.63;;
79128;SDS011;68529;43.286;23.360;2023-04-15T13:58:55;2.25;;;1.33;;
79128;SDS011;68529;43.286;23.360;2023-04-15T14:01:23;1.20;;;1.15;;
79128;SDS011;68529;43.286;23.360;2023-04-15T14:03:49;2.50;;;1.60;;
79128;SDS011;68529;43.286;23.360;2023-04-15T14:06:15;3.05;;;1.20;;
79128;SDS011;68529;43.286;23.360;2023-04-15T14:08:40;1.63;;;1.25;;
79128;SDS011;68529;43.286;23.360;2023-04-15T14:11:06;3.03;;;1.55;;
79128;SDS011;68529;43.286;23.360;2023-04-15T14:13:31;1.77;;;1.50;;
79128;SDS011;68529;43.286;23.360;2023-04-15T14:15:57;2.47;;;1.75;;
79128;SDS011;68529;43.286;23.360;2023-04-15T14:18:22;5.60;;;1.63;;
79128;SDS011;68529;43.286;23.360;2023-04-15T14:20:48;5.55;;;1.38;;
79128;SDS011;68529;43.286;23.360;2023-04-15T14:23:13;12.40;;;2.33;;
79128;SDS011;68529;43.286;23.360;2023-04-15T14:25:38;4.43;;;1.52;;
79128;SDS011;68529;43.286;23.360;2023-04-15T14:28:04;6.72;;;1.73;;
79128;SDS011;68529;43.286;23.360;2023-04-15T14:30:29;5.68;;;1.95;;
79128;SDS011;68529;43.286;23.360;2023-04-15T14:32:55;4.80;;;1.83;;
79128;SDS011;68529;43.286;23.360;2023-04-15T14:35:20;1.98;;;1.55;;
79128;SDS011;68529;43.286;23.360;2023-04-15T14:37:46;1.63;;;1.23;;
79128;SDS011;68529;43.286;23.360;2023-04-15T14:40:11;3.28;;;1.70;;
79128;SDS011;68529;43.286;23.360;2023-04-15T14:42:36;3.17;;;1.58;;
79128;SDS011;68529;43.286;23.360;2023-04-15T14:45:02;2.15;;;1.25;;
79128;SDS011;68529;43.286;23.360;2023-04-15T14:47:27;3.05;;;2.15;;
79128;SDS011;68529;43.286;23.360;2023-04-15T14:49:53;2.17;;;1.50;;
79128;SDS011;68529;43.286;23.360;2023-04-15T14:52:18;2.10;;;1.90;;
79128;SDS011;68529;43.286;23.360;2023-04-15T14:54:43;3.53;;;2.55;;
79128;SDS011;68529;43.286;23.360;2023-04-15T14:57:09;4.75;;;3.47;;
79128;SDS011;68529;43.286;23.360;2023-04-15T14:59:35;3.95;;;2.95;;
79128;SDS011;68529;43.286;23.360;2023-04-15T15:02:00;3.80;;;2.70;;